createdAt,value
2018-09-12T00:00:11.254Z,0
2018-09-12T00:01:14.219Z,0
2018-09-12T00:02:17.216Z,0
2018-09-12T00:03:20.842Z,0
2018-09-12T00:04:24.808Z,0
2018-09-12T00:05:30.155Z,0
2018-09-12T00:06:33.429Z,0
2018-09-12T00:07:37.523Z,0
2018-09-12T00:08:41.068Z,0
2018-09-12T00:09:45.624Z,0
2018-09-12T00:10:48.831Z,0
2018-09-12T00:11:51.278Z,0
2018-09-12T00:12:55.039Z,0
2018-09-12T00:13:58.384Z,0
2018-09-12T00:15:03.285Z,0
2018-09-12T00:16:06.992Z,0
2018-09-12T00:17:09.797Z,0
2018-09-12T00:18:13.907Z,0
2018-09-12T00:19:17.194Z,0
2018-09-12T00:20:20.030Z,0
2018-09-12T00:21:24.564Z,0
2018-09-12T00:22:27.091Z,0
2018-09-12T00:23:31.920Z,0
2018-09-12T00:24:35.304Z,0
2018-09-12T00:25:40.154Z,0
2018-09-12T00:26:48.018Z,0
2018-09-12T00:27:54.206Z,0
2018-09-12T00:28:58.271Z,0
2018-09-12T00:30:01.715Z,0
2018-09-12T00:31:05.500Z,0
2018-09-12T00:32:09.769Z,0
2018-09-12T00:33:15.249Z,0
2018-09-12T00:34:17.972Z,0
2018-09-12T00:35:21.713Z,0
2018-09-12T00:36:24.519Z,0
2018-09-12T00:37:26.679Z,0
2018-09-12T00:38:29.816Z,0
2018-09-12T00:39:33.022Z,0
2018-09-12T00:40:40.032Z,0
2018-09-12T00:41:42.860Z,0
2018-09-12T00:42:46.519Z,0
2018-09-12T00:43:50.194Z,0
2018-09-12T00:44:55.787Z,0
2018-09-12T00:46:00.877Z,0
2018-09-12T00:47:03.791Z,0
2018-09-12T00:48:06.450Z,0
2018-09-12T00:49:08.962Z,0
2018-09-12T00:50:11.639Z,0
2018-09-12T00:51:17.150Z,0
2018-09-12T00:52:20.966Z,0
2018-09-12T00:53:23.500Z,0
2018-09-12T00:54:25.602Z,0
2018-09-12T00:55:27.709Z,0
2018-09-12T00:56:29.810Z,0
2018-09-12T00:57:32.222Z,0
2018-09-12T00:58:34.320Z,0
2018-09-12T00:59:36.425Z,0
2018-09-12T01:00:38.537Z,0
2018-09-12T01:01:40.629Z,0
2018-09-12T01:02:42.738Z,0
2018-09-12T01:03:44.850Z,0
2018-09-12T01:04:46.962Z,0
2018-09-12T01:05:49.057Z,0
2018-09-12T01:06:51.471Z,0
2018-09-12T01:07:53.577Z,0
2018-09-12T01:08:55.974Z,0
2018-09-12T01:09:58.067Z,0
2018-09-12T01:11:00.183Z,0
2018-09-12T01:12:02.283Z,0
2018-09-12T01:13:04.379Z,0
2018-09-12T01:14:06.773Z,0
2018-09-12T01:15:08.887Z,0
2018-09-12T01:16:10.985Z,0
2018-09-12T01:17:13.095Z,0
2018-09-12T01:18:15.210Z,0
2018-09-12T01:19:17.311Z,0
2018-09-12T01:20:19.415Z,0
2018-09-12T01:21:21.531Z,0
2018-09-12T01:22:23.621Z,0
2018-09-12T01:23:25.731Z,0
2018-09-12T01:24:28.419Z,0
2018-09-12T01:25:30.514Z,0
2018-09-12T01:26:32.647Z,0
2018-09-12T01:27:34.741Z,0
2018-09-12T01:28:36.901Z,0
2018-09-12T01:29:38.942Z,0
2018-09-12T01:30:41.062Z,0
2018-09-12T01:31:43.165Z,0
2018-09-12T01:32:45.272Z,0
2018-09-12T01:33:47.386Z,0
2018-09-12T01:34:50.153Z,0
2018-09-12T01:35:52.270Z,0
2018-09-12T01:36:54.674Z,0
2018-09-12T01:37:56.784Z,0
2018-09-12T01:38:59.175Z,0
2018-09-12T01:40:01.287Z,0
2018-09-12T01:41:03.687Z,0
2018-09-12T01:42:05.791Z,0
2018-09-12T01:43:07.907Z,0
2018-09-12T01:44:10.007Z,0
2018-09-12T01:45:12.787Z,0
2018-09-12T01:46:15.205Z,0
2018-09-12T01:47:17.278Z,0
2018-09-12T01:48:19.395Z,0
2018-09-12T01:49:21.782Z,0
2018-09-12T01:50:23.898Z,0
2018-09-12T01:51:26.009Z,0
2018-09-12T01:52:28.417Z,0
2018-09-12T01:53:30.836Z,0
2018-09-12T01:54:32.952Z,0
2018-09-12T01:55:35.044Z,0
2018-09-12T01:56:37.157Z,0
2018-09-12T01:57:39.274Z,0
2018-09-12T01:58:41.371Z,0
2018-09-12T01:59:43.488Z,0
2018-09-12T02:00:45.586Z,0
2018-09-12T02:01:47.694Z,0
2018-09-12T02:02:49.791Z,0
2018-09-12T02:03:52.592Z,0
2018-09-12T02:04:54.687Z,0
2018-09-12T02:05:56.794Z,0
2018-09-12T02:06:58.907Z,0
2018-09-12T02:08:01.002Z,0
2018-09-12T02:09:03.794Z,0
2018-09-12T02:10:06.239Z,0
2018-09-12T02:11:08.352Z,0
2018-09-12T02:12:10.440Z,0
2018-09-12T02:13:12.554Z,0
2018-09-12T02:14:14.656Z,0
2018-09-12T02:15:16.755Z,0
2018-09-12T02:16:18.934Z,0
2018-09-12T02:17:21.342Z,0
2018-09-12T02:18:23.744Z,0
2018-09-12T02:19:25.868Z,0
2018-09-12T02:20:28.282Z,0
2018-09-12T02:21:30.666Z,0
2018-09-12T02:22:32.813Z,0
2018-09-12T02:23:34.887Z,0
2018-09-12T02:24:36.995Z,0
2018-09-12T02:25:39.095Z,0
2018-09-12T02:26:41.200Z,0
2018-09-12T02:27:43.311Z,0
2018-09-12T02:28:45.404Z,0
2018-09-12T02:29:47.810Z,0
2018-09-12T02:30:49.914Z,0
2018-09-12T02:31:52.009Z,0
2018-09-12T02:32:54.139Z,0
2018-09-12T02:33:56.812Z,0
2018-09-12T02:34:59.914Z,0
2018-09-12T02:36:02.294Z,0
2018-09-12T02:37:04.712Z,0
2018-09-12T02:38:06.796Z,0
2018-09-12T02:39:09.301Z,0
2018-09-12T02:40:11.708Z,0
2018-09-12T02:41:14.107Z,0
2018-09-12T02:42:16.518Z,0
2018-09-12T02:43:18.625Z,0
2018-09-12T02:44:21.024Z,0
2018-09-12T02:45:23.412Z,0
2018-09-12T02:46:25.831Z,0
2018-09-12T02:47:28.319Z,0
2018-09-12T02:48:30.710Z,0
2018-09-12T02:49:32.821Z,0
2018-09-12T02:50:34.921Z,0
2018-09-12T02:51:37.414Z,0
2018-09-12T02:52:39.522Z,0
2018-09-12T02:53:41.631Z,0
2018-09-12T02:54:44.108Z,0
2018-09-12T02:55:46.211Z,0
2018-09-12T02:56:48.301Z,0
2018-09-12T02:57:50.409Z,0
2018-09-12T02:58:53.413Z,0
2018-09-12T02:59:55.515Z,0
2018-09-12T03:00:57.603Z,0
2018-09-12T03:01:59.719Z,0
2018-09-12T03:03:01.816Z,0
2018-09-12T03:04:04.207Z,0
2018-09-12T03:05:06.318Z,0
2018-09-12T03:06:08.410Z,0
2018-09-12T03:07:10.808Z,0
2018-09-12T03:08:13.206Z,0
2018-09-12T03:09:15.699Z,0
2018-09-12T03:10:17.796Z,0
2018-09-12T03:11:19.911Z,0
2018-09-12T03:12:22.688Z,0
2018-09-12T03:13:25.065Z,0
2018-09-12T03:14:27.474Z,0
2018-09-12T03:15:29.873Z,0
2018-09-12T03:16:32.258Z,0
2018-09-12T03:17:35.055Z,0
2018-09-12T03:18:37.175Z,0
2018-09-12T03:19:39.570Z,0
2018-09-12T03:20:42.694Z,0
2018-09-12T03:21:44.735Z,0
2018-09-12T03:22:46.829Z,0
2018-09-12T03:23:48.941Z,0
2018-09-12T03:24:51.348Z,0
2018-09-12T03:25:53.455Z,0
2018-09-12T03:26:55.556Z,0
2018-09-12T03:27:57.670Z,0
2018-09-12T03:28:59.769Z,0
2018-09-12T03:30:02.166Z,0
2018-09-12T03:31:04.555Z,0
2018-09-12T03:32:07.273Z,0
2018-09-12T03:33:09.669Z,0
2018-09-12T03:34:12.073Z,0
2018-09-12T03:35:14.162Z,0
2018-09-12T03:36:16.269Z,0
2018-09-12T03:37:18.374Z,0
2018-09-12T03:38:20.480Z,0
2018-09-12T03:39:22.565Z,0
2018-09-12T03:40:24.676Z,0
2018-09-12T03:41:27.480Z,0
2018-09-12T03:42:29.887Z,0
2018-09-12T03:43:31.974Z,0
2018-09-12T03:44:34.372Z,0
2018-09-12T03:45:36.473Z,0
2018-09-12T03:46:39.173Z,0
2018-09-12T03:47:41.686Z,0
2018-09-12T03:48:43.780Z,0
2018-09-12T03:49:46.275Z,0
2018-09-12T03:50:48.376Z,0
2018-09-12T03:51:50.494Z,0
2018-09-12T03:52:52.590Z,0
2018-09-12T03:53:55.005Z,0
2018-09-12T03:54:57.114Z,0
2018-09-12T03:55:59.204Z,0
2018-09-12T03:57:01.314Z,0
2018-09-12T03:58:03.416Z,0
2018-09-12T03:59:05.512Z,0
2018-09-12T04:00:07.924Z,0
2018-09-12T04:01:10.034Z,0
2018-09-12T04:02:12.441Z,0
2018-09-12T04:03:14.559Z,0
2018-09-12T04:04:16.666Z,0
2018-09-12T04:05:18.763Z,0
2018-09-12T04:06:20.866Z,0
2018-09-12T04:07:22.976Z,0
2018-09-12T04:08:25.070Z,0
2018-09-12T04:09:27.784Z,0
2018-09-12T04:10:29.895Z,0
2018-09-12T04:11:31.996Z,0
2018-09-12T04:12:34.116Z,0
2018-09-12T04:13:36.214Z,0
2018-09-12T04:14:38.315Z,0
2018-09-12T04:15:40.415Z,0
2018-09-12T04:16:42.921Z,0
2018-09-12T04:17:45.371Z,0
2018-09-12T04:18:47.793Z,0
2018-09-12T04:19:50.180Z,0
2018-09-12T04:20:52.293Z,0
2018-09-12T04:21:54.411Z,0
2018-09-12T04:22:56.489Z,0
2018-09-12T04:23:58.879Z,0
2018-09-12T04:25:01.295Z,0
2018-09-12T04:26:03.386Z,0
2018-09-12T04:27:05.494Z,0
2018-09-12T04:28:07.599Z,0
2018-09-12T04:29:09.689Z,0
2018-09-12T04:30:12.380Z,0
2018-09-12T04:31:14.477Z,0
2018-09-12T04:32:16.578Z,0
2018-09-12T04:33:18.686Z,0
2018-09-12T04:34:20.790Z,0
2018-09-12T04:35:22.907Z,0
2018-09-12T04:36:25.616Z,0
2018-09-12T04:37:27.717Z,0
2018-09-12T04:38:29.811Z,0
2018-09-12T04:39:31.914Z,0
2018-09-12T04:40:34.042Z,0
2018-09-12T04:41:36.126Z,0
2018-09-12T04:42:38.257Z,0
2018-09-12T04:43:40.345Z,0
2018-09-12T04:44:42.728Z,0
2018-09-12T04:45:44.999Z,0
2018-09-12T04:46:47.105Z,0
2018-09-12T04:47:49.210Z,0
2018-09-12T04:48:51.302Z,0
2018-09-12T04:49:53.712Z,0
2018-09-12T04:50:56.093Z,0
2018-09-12T04:51:58.194Z,0
2018-09-12T04:53:00.623Z,0
2018-09-12T04:54:03.068Z,0
2018-09-12T04:55:05.169Z,0
2018-09-12T04:56:07.274Z,0
2018-09-12T04:57:09.375Z,0
2018-09-12T04:58:11.786Z,0
2018-09-12T04:59:13.871Z,0
2018-09-12T05:00:16.293Z,0
2018-09-12T05:01:18.996Z,0
2018-09-12T05:02:21.473Z,0
2018-09-12T05:03:23.588Z,0
2018-09-12T05:04:26.431Z,0
2018-09-12T05:05:28.812Z,0
2018-09-12T05:06:31.316Z,0
2018-09-12T05:07:33.717Z,1
2018-09-12T05:08:35.819Z,1
2018-09-12T05:09:38.235Z,1
2018-09-12T05:10:40.631Z,1
2018-09-12T05:11:42.728Z,1
2018-09-12T05:12:45.238Z,1
2018-09-12T05:13:47.334Z,1
2018-09-12T05:14:49.428Z,1
2018-09-12T05:15:51.566Z,1
2018-09-12T05:16:53.927Z,1
2018-09-12T05:17:56.019Z,1
2018-09-12T05:18:58.134Z,1
2018-09-12T05:20:00.236Z,1
2018-09-12T05:21:02.751Z,1
2018-09-12T05:22:04.845Z,1
2018-09-12T05:23:06.964Z,1
2018-09-12T05:24:09.061Z,1
2018-09-12T05:25:11.457Z,1
2018-09-12T05:26:13.857Z,1
2018-09-12T05:27:16.630Z,2
2018-09-12T05:28:18.747Z,2
2018-09-12T05:29:20.843Z,2
2018-09-12T05:30:22.946Z,1
2018-09-12T05:31:25.421Z,2
2018-09-12T05:32:27.530Z,2
2018-09-12T05:33:29.629Z,2
2018-09-12T05:34:31.730Z,3
2018-09-12T05:35:34.237Z,3
2018-09-12T05:36:36.329Z,4
2018-09-12T05:37:38.432Z,3
2018-09-12T05:38:40.546Z,3
2018-09-12T05:39:42.958Z,3
2018-09-12T05:40:45.049Z,4
2018-09-12T05:41:47.155Z,4
2018-09-12T05:42:49.257Z,4
2018-09-12T05:43:51.358Z,4
2018-09-12T05:44:53.465Z,4
2018-09-12T05:45:55.570Z,4
2018-09-12T05:46:57.969Z,4
2018-09-12T05:48:00.484Z,4
2018-09-12T05:49:02.970Z,4
2018-09-12T05:50:05.103Z,4
2018-09-12T05:51:07.182Z,4
2018-09-12T05:52:09.269Z,4
2018-09-12T05:53:11.678Z,4
2018-09-12T05:54:13.787Z,4
2018-09-12T05:55:16.211Z,4
2018-09-12T05:56:18.294Z,5
2018-09-12T05:57:20.406Z,5
2018-09-12T05:58:22.503Z,6
2018-09-12T05:59:25.001Z,6
2018-09-12T06:00:27.117Z,5
2018-09-12T06:01:29.202Z,6
2018-09-12T06:02:31.308Z,6
2018-09-12T06:03:33.406Z,7
2018-09-12T06:04:35.524Z,7
2018-09-12T06:05:37.905Z,8
2018-09-12T06:06:40.030Z,8
2018-09-12T06:07:42.407Z,7
2018-09-12T06:08:44.500Z,7
2018-09-12T06:09:46.605Z,7
2018-09-12T06:10:48.707Z,8
2018-09-12T06:11:50.814Z,9
2018-09-12T06:12:52.917Z,10
2018-09-12T06:13:55.060Z,11
2018-09-12T06:14:57.119Z,11
2018-09-12T06:15:59.225Z,12
2018-09-12T06:17:01.719Z,13
2018-09-12T06:18:03.829Z,14
2018-09-12T06:19:05.929Z,13
2018-09-12T06:20:08.025Z,16
2018-09-12T06:21:10.142Z,19
2018-09-12T06:22:12.245Z,17
2018-09-12T06:23:14.341Z,14
2018-09-12T06:24:16.742Z,11
2018-09-12T06:25:19.137Z,10
2018-09-12T06:26:21.239Z,10
2018-09-12T06:27:23.638Z,12
2018-09-12T06:28:25.747Z,13
2018-09-12T06:29:27.839Z,12
2018-09-12T06:30:29.948Z,12
2018-09-12T06:31:32.054Z,14
2018-09-12T06:32:34.147Z,15
2018-09-12T06:33:36.268Z,14
2018-09-12T06:34:38.361Z,14
2018-09-12T06:35:40.467Z,14
2018-09-12T06:36:42.569Z,13
2018-09-12T06:37:45.033Z,12
2018-09-12T06:38:47.627Z,11
2018-09-12T06:39:49.569Z,10
2018-09-12T06:40:51.982Z,12
2018-09-12T06:41:54.366Z,14
2018-09-12T06:42:56.480Z,13
2018-09-12T06:43:58.590Z,12
2018-09-12T06:45:00.679Z,10
2018-09-12T06:46:03.360Z,9
2018-09-12T06:47:05.474Z,9
2018-09-12T06:48:07.576Z,8
2018-09-12T06:49:09.673Z,9
2018-09-12T06:50:11.776Z,11
2018-09-12T06:51:13.890Z,12
2018-09-12T06:52:16.389Z,13
2018-09-12T06:53:18.489Z,13
2018-09-12T06:54:20.607Z,13
2018-09-12T06:55:22.711Z,11
2018-09-12T06:56:24.816Z,11
2018-09-12T06:57:27.249Z,11
2018-09-12T06:58:29.337Z,11
2018-09-12T06:59:31.445Z,11
2018-09-12T07:00:34.195Z,10
2018-09-12T07:01:36.262Z,10
2018-09-12T07:02:38.353Z,11
2018-09-12T07:03:41.058Z,14
2018-09-12T07:04:43.159Z,14
2018-09-12T07:05:45.254Z,12
2018-09-12T07:06:47.367Z,12
2018-09-12T07:07:49.464Z,11
2018-09-12T07:08:51.856Z,11
2018-09-12T07:09:53.956Z,14
2018-09-12T07:10:56.075Z,14
2018-09-12T07:11:58.169Z,13
2018-09-12T07:13:00.280Z,13
2018-09-12T07:14:02.766Z,16
2018-09-12T07:15:04.864Z,20
2018-09-12T07:16:06.978Z,16
2018-09-12T07:17:09.666Z,15
2018-09-12T07:18:12.051Z,17
2018-09-12T07:19:14.163Z,21
2018-09-12T07:20:16.273Z,19
2018-09-12T07:21:18.374Z,19
2018-09-12T07:22:20.492Z,20
2018-09-12T07:23:22.591Z,20
2018-09-12T07:24:24.781Z,16
2018-09-12T07:25:27.467Z,13
2018-09-12T07:26:29.862Z,13
2018-09-12T07:27:32.328Z,12
2018-09-12T07:28:34.369Z,13
2018-09-12T07:29:36.488Z,14
2018-09-12T07:30:38.792Z,14
2018-09-12T07:31:40.711Z,14
2018-09-12T07:32:43.206Z,15
2018-09-12T07:33:45.310Z,15
2018-09-12T07:34:47.734Z,15
2018-09-12T07:35:49.829Z,16
2018-09-12T07:36:52.243Z,17
2018-09-12T07:37:54.363Z,17
2018-09-12T07:38:57.060Z,17
2018-09-12T07:39:59.175Z,18
2018-09-12T07:41:01.664Z,21
2018-09-12T07:42:04.064Z,21
2018-09-12T07:43:06.454Z,23
2018-09-12T07:44:08.574Z,24
2018-09-12T07:45:10.673Z,23
2018-09-12T07:46:13.071Z,27
2018-09-12T07:47:15.179Z,29
2018-09-12T07:48:17.268Z,31
2018-09-12T07:49:19.382Z,33
2018-09-12T07:50:21.788Z,38
2018-09-12T07:51:23.879Z,43
2018-09-12T07:52:26.285Z,52
2018-09-12T07:53:28.397Z,54
2018-09-12T07:54:30.497Z,66
2018-09-12T07:55:32.607Z,68
2018-09-12T07:56:35.433Z,56
2018-09-12T07:57:38.104Z,41
2018-09-12T07:58:40.204Z,34
2018-09-12T07:59:42.615Z,32
2018-09-12T08:00:44.706Z,33
2018-09-12T08:01:46.811Z,41
2018-09-12T08:02:48.914Z,50
2018-09-12T08:03:51.028Z,58
2018-09-12T08:04:53.260Z,64
2018-09-12T08:05:55.693Z,58
2018-09-12T08:06:58.182Z,47
2018-09-12T08:08:00.275Z,51
2018-09-12T08:09:02.395Z,53
2018-09-12T08:10:04.489Z,49
2018-09-12T08:11:06.596Z,63
2018-09-12T08:12:08.785Z,70
2018-09-12T08:13:11.203Z,74
2018-09-12T08:14:13.313Z,72
2018-09-12T08:15:15.418Z,63
2018-09-12T08:16:17.920Z,56
2018-09-12T08:17:20.007Z,57
2018-09-12T08:18:22.117Z,59
2018-09-12T08:19:24.230Z,58
2018-09-12T08:20:26.640Z,48
2018-09-12T08:21:28.755Z,49
2018-09-12T08:22:30.851Z,44
2018-09-12T08:23:32.960Z,48
2018-09-12T08:24:35.680Z,65
2018-09-12T08:25:37.787Z,52
2018-09-12T08:26:40.265Z,36
2018-09-12T08:27:42.307Z,35
2018-09-12T08:28:44.410Z,35
2018-09-12T08:29:46.518Z,31
2018-09-12T08:30:48.631Z,28
2018-09-12T08:31:50.735Z,26
2018-09-12T08:32:52.833Z,23
2018-09-12T08:33:54.952Z,24
2018-09-12T08:34:57.054Z,24
2018-09-12T08:35:59.161Z,21
2018-09-12T08:37:01.272Z,22
2018-09-12T08:38:03.361Z,21
2018-09-12T08:39:05.471Z,19
2018-09-12T08:40:07.576Z,18
2018-09-12T08:41:09.692Z,18
2018-09-12T08:42:12.255Z,18
2018-09-12T08:43:14.332Z,18
2018-09-12T08:44:16.440Z,19
2018-09-12T08:45:18.852Z,19
2018-09-12T08:46:21.225Z,17
2018-09-12T08:47:23.337Z,16
2018-09-12T08:48:25.443Z,15
2018-09-12T08:49:27.546Z,14
2018-09-12T08:50:30.032Z,15
2018-09-12T08:51:32.139Z,17
2018-09-12T08:52:34.245Z,16
2018-09-12T08:53:36.738Z,17
2018-09-12T08:54:39.145Z,19
2018-09-12T08:55:41.239Z,20
2018-09-12T08:56:43.341Z,22
2018-09-12T08:57:45.462Z,23
2018-09-12T08:58:47.561Z,27
2018-09-12T08:59:49.653Z,24
2018-09-12T09:00:51.763Z,27
2018-09-12T09:01:53.855Z,30
2018-09-12T09:02:56.257Z,26
2018-09-12T09:03:58.738Z,25
2018-09-12T09:05:00.818Z,25
2018-09-12T09:06:03.304Z,28
2018-09-12T09:07:05.718Z,37
2018-09-12T09:08:07.807Z,34
2018-09-12T09:09:09.903Z,32
2018-09-12T09:10:12.013Z,27
2018-09-12T09:11:14.101Z,26
2018-09-12T09:12:16.206Z,30
2018-09-12T09:13:18.317Z,32
2018-09-12T09:14:20.422Z,38
2018-09-12T09:15:22.506Z,38
2018-09-12T09:16:24.633Z,32
2018-09-12T09:17:26.774Z,32
2018-09-12T09:18:29.118Z,37
2018-09-12T09:19:31.520Z,45
2018-09-12T09:20:33.609Z,48
2018-09-12T09:21:35.712Z,49
2018-09-12T09:22:37.817Z,48
2018-09-12T09:23:39.949Z,48
2018-09-12T09:24:42.027Z,49
2018-09-12T09:25:44.421Z,48
2018-09-12T09:26:46.528Z,44
2018-09-12T09:27:48.616Z,46
2018-09-12T09:28:50.727Z,48
2018-09-12T09:29:53.126Z,51
2018-09-12T09:30:55.219Z,51
2018-09-12T09:31:57.322Z,46
2018-09-12T09:32:59.434Z,37
2018-09-12T09:34:01.539Z,34
2018-09-12T09:35:04.085Z,36
2018-09-12T09:36:06.826Z,38
2018-09-12T09:37:08.914Z,38
2018-09-12T09:38:11.014Z,42
2018-09-12T09:39:13.711Z,48
2018-09-12T09:40:16.106Z,52
2018-09-12T09:41:18.500Z,48
2018-09-12T09:42:20.610Z,49
2018-09-12T09:43:22.998Z,55
2018-09-12T09:44:25.406Z,62
2018-09-12T09:45:27.971Z,66
2018-09-12T09:46:30.017Z,70
2018-09-12T09:47:32.111Z,76
2018-09-12T09:48:34.626Z,83
2018-09-12T09:49:37.027Z,77
2018-09-12T09:50:39.111Z,71
2018-09-12T09:51:41.220Z,68
2018-09-12T09:52:43.308Z,67
2018-09-12T09:53:45.421Z,53
2018-09-12T09:54:47.621Z,49
2018-09-12T09:55:49.635Z,36
2018-09-12T09:56:51.720Z,39
2018-09-12T09:57:53.827Z,48
2018-09-12T09:58:56.231Z,49
2018-09-12T09:59:58.349Z,44
2018-09-12T10:01:00.435Z,48
2018-09-12T10:02:02.877Z,53
2018-09-12T10:03:04.954Z,61
2018-09-12T10:04:07.073Z,68
2018-09-12T10:05:09.176Z,75
2018-09-12T10:06:11.292Z,88
2018-09-12T10:07:13.395Z,83
2018-09-12T10:08:15.509Z,60
2018-09-12T10:09:17.626Z,50
2018-09-12T10:10:20.038Z,52
2018-09-12T10:11:22.142Z,56
2018-09-12T10:12:24.267Z,56
2018-09-12T10:13:26.366Z,60
2018-09-12T10:14:28.768Z,68
2018-09-12T10:15:30.899Z,87
2018-09-12T10:16:33.320Z,98
2018-09-12T10:17:35.736Z,92
2018-09-12T10:18:37.836Z,104
2018-09-12T10:19:40.234Z,101
2018-09-12T10:20:42.337Z,120
2018-09-12T10:21:44.458Z,124
2018-09-12T10:22:46.555Z,111
2018-09-12T10:23:48.958Z,81
2018-09-12T10:24:51.079Z,68
2018-09-12T10:25:53.167Z,61
2018-09-12T10:26:55.294Z,60
2018-09-12T10:27:57.396Z,63
2018-09-12T10:28:59.516Z,57
2018-09-12T10:30:01.892Z,48
2018-09-12T10:31:04.005Z,48
2018-09-12T10:32:06.687Z,55
2018-09-12T10:33:08.797Z,59
2018-09-12T10:34:10.916Z,65
2018-09-12T10:35:13.300Z,68
2018-09-12T10:36:15.408Z,63
2018-09-12T10:37:17.564Z,59
2018-09-12T10:38:19.668Z,62
2018-09-12T10:39:22.455Z,66
2018-09-12T10:40:24.872Z,59
2018-09-12T10:41:26.977Z,60
2018-09-12T10:42:29.092Z,60
2018-09-12T10:43:31.208Z,55
2018-09-12T10:44:33.310Z,50
2018-09-12T10:45:35.411Z,48
2018-09-12T10:46:37.539Z,49
2018-09-12T10:47:39.646Z,53
2018-09-12T10:48:41.748Z,58
2018-09-12T10:49:44.257Z,64
2018-09-12T10:50:46.346Z,73
2018-09-12T10:51:48.459Z,81
2018-09-12T10:52:51.260Z,82
2018-09-12T10:53:53.669Z,86
2018-09-12T10:54:55.759Z,86
2018-09-12T10:55:57.874Z,106
2018-09-12T10:56:59.996Z,118
2018-09-12T10:58:02.380Z,95
2018-09-12T10:59:04.561Z,94
2018-09-12T11:00:06.597Z,100
2018-09-12T11:01:08.703Z,114
2018-09-12T11:02:10.817Z,127
2018-09-12T11:03:12.939Z,128
2018-09-12T11:04:15.050Z,130
2018-09-12T11:05:17.148Z,131
2018-09-12T11:06:19.267Z,128
2018-09-12T11:07:21.658Z,129
2018-09-12T11:08:23.783Z,149
2018-09-12T11:09:25.891Z,180
2018-09-12T11:10:28.006Z,141
2018-09-12T11:11:30.110Z,143
2018-09-12T11:12:32.240Z,117
2018-09-12T11:13:34.339Z,97
2018-09-12T11:14:36.436Z,99
2018-09-12T11:15:38.548Z,77
2018-09-12T11:16:40.658Z,69
2018-09-12T11:17:43.546Z,63
2018-09-12T11:18:45.643Z,62
2018-09-12T11:19:47.768Z,64
2018-09-12T11:20:50.167Z,60
2018-09-12T11:21:52.656Z,55
2018-09-12T11:22:54.779Z,48
2018-09-12T11:23:56.947Z,46
2018-09-12T11:24:58.984Z,48
2018-09-12T11:26:01.090Z,52
2018-09-12T11:27:03.208Z,54
2018-09-12T11:28:05.302Z,53
2018-09-12T11:29:07.423Z,50
2018-09-12T11:30:10.276Z,46
2018-09-12T11:31:12.377Z,50
2018-09-12T11:32:14.810Z,50
2018-09-12T11:33:16.925Z,50
2018-09-12T11:34:19.551Z,49
2018-09-12T11:35:21.581Z,54
2018-09-12T11:36:23.995Z,52
2018-09-12T11:37:26.664Z,49
2018-09-12T11:38:29.166Z,42
2018-09-12T11:39:31.279Z,38
2018-09-12T11:40:33.670Z,36
2018-09-12T11:41:35.783Z,31
2018-09-12T11:42:38.180Z,30
2018-09-12T11:43:40.280Z,28
2018-09-12T11:44:42.386Z,27
2018-09-12T11:45:44.500Z,29
2018-09-12T11:46:46.602Z,31
2018-09-12T11:47:48.714Z,34
2018-09-12T11:48:51.501Z,34
2018-09-12T11:49:53.599Z,30
2018-09-12T11:50:55.994Z,27
2018-09-12T11:51:58.101Z,26
2018-09-12T11:53:00.218Z,23
2018-09-12T11:54:02.733Z,23
2018-09-12T11:55:05.442Z,26
2018-09-12T11:56:07.948Z,26
2018-09-12T11:57:10.035Z,27
2018-09-12T11:58:12.145Z,28
2018-09-12T11:59:14.540Z,26
2018-09-12T12:00:16.655Z,21
2018-09-12T12:01:19.050Z,18
2018-09-12T12:02:22.162Z,19
2018-09-12T12:03:24.952Z,25
2018-09-12T12:04:27.050Z,36
2018-09-12T12:05:29.455Z,44
2018-09-12T12:06:31.551Z,50
2018-09-12T12:07:33.656Z,62
2018-09-12T12:08:36.056Z,68
2018-09-12T12:09:38.174Z,66
2018-09-12T12:10:40.563Z,64
2018-09-12T12:11:42.669Z,62
2018-09-12T12:12:45.064Z,56
2018-09-12T12:13:47.449Z,49
2018-09-12T12:14:49.572Z,44
2018-09-12T12:15:51.678Z,41
2018-09-12T12:16:54.077Z,44
2018-09-12T12:17:56.574Z,68
2018-09-12T12:18:58.689Z,103
2018-09-12T12:20:00.794Z,103
2018-09-12T12:21:02.907Z,138
2018-09-12T12:22:05.011Z,121
2018-09-12T12:23:07.535Z,107
2018-09-12T12:24:10.021Z,97
2018-09-12T12:25:12.137Z,80
2018-09-12T12:26:14.228Z,70
2018-09-12T12:27:16.342Z,56
2018-09-12T12:28:18.449Z,38
2018-09-12T12:29:20.557Z,29
2018-09-12T12:30:22.659Z,23
2018-09-12T12:31:25.166Z,16
2018-09-12T12:32:27.274Z,17
2018-09-12T12:33:29.396Z,21
2018-09-12T12:34:31.480Z,23
2018-09-12T12:35:34.082Z,21
2018-09-12T12:36:36.055Z,16
2018-09-12T12:37:38.154Z,15
2018-09-12T12:38:40.286Z,15
2018-09-12T12:39:42.692Z,15
2018-09-12T12:40:44.806Z,14
2018-09-12T12:41:47.202Z,13
2018-09-12T12:42:49.320Z,12
2018-09-12T12:43:51.808Z,15
2018-09-12T12:44:54.209Z,19
2018-09-12T12:45:56.318Z,19
2018-09-12T12:46:58.422Z,17
2018-09-12T12:48:01.247Z,16
2018-09-12T12:49:03.355Z,15
2018-09-12T12:50:05.460Z,14
2018-09-12T12:51:07.570Z,14
2018-09-12T12:52:09.686Z,11
2018-09-12T12:53:12.085Z,9
2018-09-12T12:54:14.209Z,10
2018-09-12T12:55:16.315Z,15
2018-09-12T12:56:18.703Z,23
2018-09-12T12:57:21.106Z,34
2018-09-12T12:58:23.224Z,44
2018-09-12T12:59:25.314Z,46
2018-09-12T13:00:27.726Z,43
2018-09-12T13:01:30.119Z,47
2018-09-12T13:02:32.500Z,48
2018-09-12T13:03:34.616Z,45
2018-09-12T13:04:36.717Z,45
2018-09-12T13:05:39.616Z,47
2018-09-12T13:06:41.626Z,49
2018-09-12T13:07:43.751Z,49
2018-09-12T13:08:45.900Z,47
2018-09-12T13:09:48.007Z,47
2018-09-12T13:10:50.120Z,48
2018-09-12T13:11:52.218Z,46
2018-09-12T13:13:05.200Z,42
2018-09-12T13:14:09.741Z,41
2018-09-12T13:15:12.684Z,41
2018-09-12T13:16:14.772Z,40
2018-09-12T13:17:16.887Z,38
2018-09-12T13:18:18.985Z,37
2018-09-12T13:19:21.135Z,34
2018-09-12T13:20:23.247Z,33
2018-09-12T13:21:25.381Z,39
2018-09-12T13:22:27.460Z,45
2018-09-12T13:23:30.391Z,47
2018-09-12T13:24:34.366Z,51
2018-09-12T13:25:38.822Z,53
2018-09-12T13:26:42.269Z,54
2018-09-12T13:27:45.529Z,52
2018-09-12T13:28:48.631Z,39
2018-09-12T13:29:51.562Z,32
2018-09-12T13:30:58.652Z,28
2018-09-12T13:32:01.612Z,28
2018-09-12T13:33:05.370Z,32
2018-09-12T13:34:08.950Z,32
2018-09-12T13:35:12.235Z,24
2018-09-12T13:36:15.344Z,20
2018-09-12T13:37:19.142Z,24
2018-09-12T13:38:22.401Z,30
2018-09-12T13:39:25.794Z,35
2018-09-12T13:40:29.294Z,36
2018-09-12T13:41:32.251Z,41
2018-09-12T13:42:35.281Z,36
2018-09-12T13:43:38.150Z,25
2018-09-12T13:44:40.986Z,25
2018-09-12T13:45:44.710Z,27
2018-09-12T13:46:47.722Z,29
2018-09-12T13:47:50.910Z,31
2018-09-12T13:48:55.234Z,36
2018-09-12T13:49:59.847Z,37
2018-09-12T13:51:02.589Z,37
2018-09-12T13:52:06.156Z,36
2018-09-12T13:53:10.076Z,35
2018-09-12T13:54:16.407Z,33
2018-09-12T13:55:20.693Z,35
2018-09-12T13:56:24.143Z,52
2018-09-12T13:57:27.140Z,56
2018-09-12T13:58:29.579Z,57
2018-09-12T13:59:32.352Z,67
2018-09-12T14:00:35.608Z,57
2018-09-12T14:01:38.869Z,46
2018-09-12T14:02:41.871Z,38
2018-09-12T14:03:44.525Z,32
2018-09-12T14:04:46.875Z,32
2018-09-12T14:05:49.566Z,33
2018-09-12T14:06:51.879Z,38
2018-09-12T14:07:53.979Z,47
2018-09-12T14:08:56.554Z,48
2018-09-12T14:09:59.772Z,42
2018-09-12T14:11:02.247Z,39
2018-09-12T14:12:05.216Z,37
2018-09-12T14:13:08.428Z,34
2018-09-12T14:14:10.928Z,28
2018-09-12T14:15:13.825Z,23
2018-09-12T14:16:16.324Z,23
2018-09-12T14:17:18.826Z,24
2018-09-12T14:18:21.462Z,24
2018-09-12T14:19:24.706Z,24
2018-09-12T14:20:27.060Z,23
2018-09-12T14:21:29.501Z,23
2018-09-12T14:22:32.426Z,24
2018-09-12T14:23:34.929Z,25
2018-09-12T14:24:37.733Z,26
2018-09-12T14:25:40.789Z,25
2018-09-12T14:26:43.277Z,27
2018-09-12T14:27:45.798Z,31
2018-09-12T14:28:48.475Z,33
2018-09-12T14:29:50.992Z,32
2018-09-12T14:30:54.068Z,28
2018-09-12T14:31:57.007Z,26
2018-09-12T14:32:59.527Z,26
2018-09-12T14:34:03.222Z,23
2018-09-12T14:35:05.989Z,22
2018-09-12T14:36:09.042Z,25
2018-09-12T14:37:12.061Z,27
2018-09-12T14:38:15.177Z,30
2018-09-12T14:39:18.097Z,34
2018-09-12T14:40:20.691Z,40
2018-09-12T14:41:23.470Z,48
2018-09-12T14:42:26.348Z,50
2018-09-12T14:43:28.769Z,50
2018-09-12T14:44:31.786Z,48
2018-09-12T14:45:34.677Z,47
2018-09-12T14:46:37.890Z,45
2018-09-12T14:47:40.918Z,42
2018-09-12T14:48:43.517Z,36
2018-09-12T14:49:46.320Z,27
2018-09-12T14:50:48.853Z,21
2018-09-12T14:51:51.534Z,17
2018-09-12T14:52:54.103Z,19
2018-09-12T14:53:56.614Z,25
2018-09-12T14:54:59.721Z,27
2018-09-12T14:56:02.236Z,27
2018-09-12T14:57:04.939Z,30
2018-09-12T14:58:07.055Z,33
2018-09-12T14:59:09.465Z,33
2018-09-12T15:00:11.574Z,31
2018-09-12T15:01:13.669Z,26
2018-09-12T15:02:15.791Z,19